sensor_id;sensor_type;location;lat;lon;timestamp;pressure;altitude;pressure_sealevel;temperature
14666;BMP280;7420;53.574;10.040;2023-06-22T00:31:57;54229.28;;;-136.87
14666;BMP280;7420;53.574;10.040;2023-06-22T00:34:22;54233.38;;;-136.87
14666;BMP280;7420;53.574;10.040;2023-06-22T00:36:47;54231.31;;;-136.87
14666;BMP280;7420;53.574;10.040;2023-06-22T00:39:13;54233.38;;;-136.87
14666;BMP280;7420;53.574;10.040;2023-06-22T00:41:38;54233.38;;;-136.87
14666;BMP280;7420;53.574;10.040;2023-06-22T00:44:04;54233.38;;;-136.87
14666;BMP280;7420;53.574;10.040;2023-06-22T00:46:29;54229.28;;;-136.87
14666;BMP280;7420;53.574;10.040;2023-06-22T00:48:55;54229.28;;;-136.87
14666;BMP280;7420;53.574;10.040;2023-06-22T00:51:22;54231.31;;;-136.87
14666;BMP280;7420;53.574;10.040;2023-06-22T00:53:49;54229.28;;;-136.87
14666;BMP280;7420;53.574;10.040;2023-06-22T00:56:15;54229.28;;;-136.87
14666;BMP280;7420;53.574;10.040;2023-06-22T00:58:45;54233.38;;;-136.87
14666;BMP280;7420;53.574;10.040;2023-06-22T01:01:12;54233.38;;;-136.87
14666;BMP280;7420;53.574;10.040;2023-06-22T01:03:39;54231.31;;;-136.87
14666;BMP280;7420;53.574;10.040;2023-06-22T01:06:10;54229.28;;;-136.87
14666;BMP280;7420;53.574;10.040;2023-06-22T01:09:06;54229.28;;;-136.87
14666;BMP280;7420;53.574;10.040;2023-06-22T01:14:47;54233.38;;;-136.87
14666;BMP280;7420;53.574;10.040;2023-06-22T01:17:19;54235.41;;;-136.87
14666;BMP280;7420;53.574;10.040;2023-06-22T01:19:49;54231.31;;;-136.87
14666;BMP280;7420;53.574;10.040;2023-06-22T01:22:23;54229.28;;;-136.87
14666;BMP280;7420;53.574;10.040;2023-06-22T01:27:40;54229.28;;;-136.87
14666;BMP280;7420;53.574;10.040;2023-06-22T01:30:11;54231.31;;;-136.87
14666;BMP280;7420;53.574;10.040;2023-06-22T01:32:40;54229.28;;;-136.87
14666;BMP280;7420;53.574;10.040;2023-06-22T01:35:07;54227.25;;;-136.87
14666;BMP280;7420;53.574;10.040;2023-06-22T01:37:35;54231.31;;;-136.87
14666;BMP280;7420;53.574;10.040;2023-06-22T01:40:02;54229.28;;;-136.87
14666;BMP280;7420;53.574;10.040;2023-06-22T01:42:28;54227.25;;;-136.87
14666;BMP280;7420;53.574;10.040;2023-06-22T01:44:55;54229.28;;;-136.87
14666;BMP280;7420;53.574;10.040;2023-06-22T01:47:22;54227.25;;;-136.87
14666;BMP280;7420;53.574;10.040;2023-06-22T01:49:48;54229.28;;;-136.87
14666;BMP280;7420;53.574;10.040;2023-06-22T01:52:15;54229.28;;;-136.87
14666;BMP280;7420;53.574;10.040;2023-06-22T01:57:07;54229.28;;;-136.87
14666;BMP280;7420;53.574;10.040;2023-06-22T01:59:36;54227.25;;;-136.87
14666;BMP280;7420;53.574;10.040;2023-06-22T02:02:08;54231.31;;;-136.87
14666;BMP280;7420;53.574;10.040;2023-06-22T02:05:02;54229.28;;;-136.87
14666;BMP280;7420;53.574;10.040;2023-06-22T02:07:32;54229.28;;;-136.87
14666;BMP280;7420;53.574;10.040;2023-06-22T02:10:00;54229.28;;;-136.87
14666;BMP280;7420;53.574;10.040;2023-06-22T02:12:28;54227.25;;;-136.87
14666;BMP280;7420;53.574;10.040;2023-06-22T02:14:55;54229.28;;;-136.87
14666;BMP280;7420;53.574;10.040;2023-06-22T02:17:21;54227.25;;;-136.87
14666;BMP280;7420;53.574;10.040;2023-06-22T02:19:47;54225.19;;;-136.87
14666;BMP280;7420;53.574;10.040;2023-06-22T02:22:12;54227.25;;;-136.87
14666;BMP280;7420;53.574;10.040;2023-06-22T02:24:38;54229.28;;;-136.87
14666;BMP280;7420;53.574;10.040;2023-06-22T02:27:04;54229.28;;;-136.87
14666;BMP280;7420;53.574;10.040;2023-06-22T02:29:32;54225.19;;;-136.87
14666;BMP280;7420;53.574;10.040;2023-06-22T02:31:57;54229.28;;;-136.87
14666;BMP280;7420;53.574;10.040;2023-06-22T02:34:23;54229.28;;;-136.87
14666;BMP280;7420;53.574;10.040;2023-06-22T02:36:49;54227.25;;;-136.87
14666;BMP280;7420;53.574;10.040;2023-06-22T02:39:19;54225.19;;;-136.87
14666;BMP280;7420;53.574;10.040;2023-06-22T02:41:45;54229.28;;;-136.87
14666;BMP280;7420;53.574;10.040;2023-06-22T02:44:11;54225.19;;;-136.87
14666;BMP280;7420;53.574;10.040;2023-06-22T02:46:36;54225.19;;;-136.87
14666;BMP280;7420;53.574;10.040;2023-06-22T02:49:02;54229.28;;;-136.87
14666;BMP280;7420;53.574;10.040;2023-06-22T02:51:27;54227.25;;;-136.87
14666;BMP280;7420;53.574;10.040;2023-06-22T02:53:52;54227.25;;;-136.87
14666;BMP280;7420;53.574;10.040;2023-06-22T02:56:22;54227.25;;;-136.87
14666;BMP280;7420;53.574;10.040;2023-06-22T02:58:50;54229.28;;;-136.87
14666;BMP280;7420;53.574;10.040;2023-06-22T03:01:16;54225.19;;;-136.87
14666;BMP280;7420;53.574;10.040;2023-06-22T03:03:41;54227.25;;;-136.87
14666;BMP280;7420;53.574;10.040;2023-06-22T03:06:07;54229.28;;;-136.87
14666;BMP280;7420;53.574;10.040;2023-06-22T03:08:32;54229.28;;;-136.87
14666;BMP280;7420;53.574;10.040;2023-06-22T03:10:57;54227.25;;;-136.87
14666;BMP280;7420;53.574;10.040;2023-06-22T03:13:23;54229.28;;;-136.87
14666;BMP280;7420;53.574;10.040;2023-06-22T03:15:49;54225.19;;;-136.87
14666;BMP280;7420;53.574;10.040;2023-06-22T03:18:15;54229.28;;;-136.87
14666;BMP280;7420;53.574;10.040;2023-06-22T03:23:27;54229.28;;;-136.87
14666;BMP280;7420;53.574;10.040;2023-06-22T03:25:52;54227.25;;;-136.87
14666;BMP280;7420;53.574;10.040;2023-06-22T03:28:20;54225.19;;;-136.87
14666;BMP280;7420;53.574;10.040;2023-06-22T03:30:46;54229.28;;;-136.87
14666;BMP280;7420;53.574;10.040;2023-06-22T03:33:12;54227.25;;;-136.87
14666;BMP280;7420;53.574;10.040;2023-06-22T03:35:37;54227.25;;;-136.87
14666;BMP280;7420;53.574;10.040;2023-06-22T03:38:03;54227.25;;;-136.87
14666;BMP280;7420;53.574;10.040;2023-06-22T03:40:29;54225.19;;;-136.87
14666;BMP280;7420;53.574;10.040;2023-06-22T03:42:55;54229.28;;;-136.87
14666;BMP280;7420;53.574;10.040;2023-06-22T03:45:20;54227.25;;;-136.87
14666;BMP280;7420;53.574;10.040;2023-06-22T03:47:45;54225.19;;;-136.87
14666;BMP280;7420;53.574;10.040;2023-06-22T03:50:11;54225.19;;;-136.87
14666;BMP280;7420;53.574;10.040;2023-06-22T03:52:36;54227.25;;;-136.87
14666;BMP280;7420;53.574;10.040;2023-06-22T03:55:02;54227.25;;;-136.87
14666;BMP280;7420;53.574;10.040;2023-06-22T03:57:27;54229.28;;;-136.87
14666;BMP280;7420;53.574;10.040;2023-06-22T03:59:56;54229.28;;;-136.87
14666;BMP280;7420;53.574;10.040;2023-06-22T04:02:21;54227.25;;;-136.87
14666;BMP280;7420;53.574;10.040;2023-06-22T04:04:46;54229.28;;;-136.87
14666;BMP280;7420;53.574;10.040;2023-06-22T04:07:12;54225.19;;;-136.87
14666;BMP280;7420;53.574;10.040;2023-06-22T04:09:37;54227.25;;;-136.87
14666;BMP280;7420;53.574;10.040;2023-06-22T04:12:03;54227.25;;;-136.87
14666;BMP280;7420;53.574;10.040;2023-06-22T04:14:28;54225.19;;;-136.87
14666;BMP280;7420;53.574;10.040;2023-06-22T04:16:54;54229.28;;;-136.87
14666;BMP280;7420;53.574;10.040;2023-06-22T04:19:19;54225.19;;;-136.87
14666;BMP280;7420;53.574;10.040;2023-06-22T04:21:44;54225.19;;;-136.87
14666;BMP280;7420;53.574;10.040;2023-06-22T04:24:11;54225.19;;;-136.87
14666;BMP280;7420;53.574;10.040;2023-06-22T04:26:36;54225.19;;;-136.87
14666;BMP280;7420;53.574;10.040;2023-06-22T04:29:05;54225.19;;;-136.87
14666;BMP280;7420;53.574;10.040;2023-06-22T04:31:34;54225.19;;;-136.87
14666;BMP280;7420;53.574;10.040;2023-06-22T04:34:03;54225.19;;;-136.87
14666;BMP280;7420;53.574;10.040;2023-06-22T04:36:41;54229.28;;;-136.87
14666;BMP280;7420;53.574;10.040;2023-06-22T04:39:10;54225.19;;;-136.87
14666;BMP280;7420;53.574;10.040;2023-06-22T04:41:37;54229.28;;;-136.87
14666;BMP280;7420;53.574;10.040;2023-06-22T04:44:11;54227.25;;;-136.87
14666;BMP280;7420;53.574;10.040;2023-06-22T04:46:38;54225.19;;;-136.87
14666;BMP280;7420;53.574;10.040;2023-06-22T04:49:07;54229.28;;;-136.87
14666;BMP280;7420;53.574;10.040;2023-06-22T04:51:38;54225.19;;;-136.87
14666;BMP280;7420;53.574;10.040;2023-06-22T04:54:03;54229.28;;;-136.87
14666;BMP280;7420;53.574;10.040;2023-06-22T04:56:31;54227.25;;;-136.87
14666;BMP280;7420;53.574;10.040;2023-06-22T04:58:56;54227.25;;;-136.87
14666;BMP280;7420;53.574;10.040;2023-06-22T05:01:23;54229.28;;;-136.87
14666;BMP280;7420;53.574;10.040;2023-06-22T05:03:49;54229.28;;;-136.87
14666;BMP280;7420;53.574;10.040;2023-06-22T05:06:15;54225.19;;;-136.87
14666;BMP280;7420;53.574;10.040;2023-06-22T05:08:40;54229.28;;;-136.87
14666;BMP280;7420;53.574;10.040;2023-06-22T05:11:06;54225.19;;;-136.87
14666;BMP280;7420;53.574;10.040;2023-06-22T05:13:31;54225.19;;;-136.87
14666;BMP280;7420;53.574;10.040;2023-06-22T05:15:57;54225.19;;;-136.87
14666;BMP280;7420;53.574;10.040;2023-06-22T05:18:30;54227.25;;;-136.87
14666;BMP280;7420;53.574;10.040;2023-06-22T05:20:56;54227.25;;;-136.87
14666;BMP280;7420;53.574;10.040;2023-06-22T05:23:22;54225.19;;;-136.87
14666;BMP280;7420;53.574;10.040;2023-06-22T05:25:47;54225.19;;;-136.87
14666;BMP280;7420;53.574;10.040;2023-06-22T05:28:13;54227.25;;;-136.87
14666;BMP280;7420;53.574;10.040;2023-06-22T05:30:39;54227.25;;;-136.87
14666;BMP280;7420;53.574;10.040;2023-06-22T05:33:04;54225.19;;;-136.87
14666;BMP280;7420;53.574;10.040;2023-06-22T05:35:29;54231.31;;;-136.87
14666;BMP280;7420;53.574;10.040;2023-06-22T05:37:55;54227.25;;;-136.87
14666;BMP280;7420;53.574;10.040;2023-06-22T05:40:21;54231.31;;;-136.87
14666;BMP280;7420;53.574;10.040;2023-06-22T05:42:46;54227.25;;;-136.87
14666;BMP280;7420;53.574;10.040;2023-06-22T05:45:12;54229.28;;;-136.87
14666;BMP280;7420;53.574;10.040;2023-06-22T05:47:37;54229.28;;;-136.87
14666;BMP280;7420;53.574;10.040;2023-06-22T05:50:03;54231.31;;;-136.87
14666;BMP280;7420;53.574;10.040;2023-06-22T05:52:32;54231.31;;;-136.87
14666;BMP280;7420;53.574;10.040;2023-06-22T05:54:58;54233.38;;;-136.87
14666;BMP280;7420;53.574;10.040;2023-06-22T05:57:23;54231.31;;;-136.87
14666;BMP280;7420;53.574;10.040;2023-06-22T05:59:52;54233.38;;;-136.87
14666;BMP280;7420;53.574;10.040;2023-06-22T06:02:19;54233.38;;;-136.87
14666;BMP280;7420;53.574;10.040;2023-06-22T06:04:44;54237.44;;;-136.87
14666;BMP280;7420;53.574;10.040;2023-06-22T06:07:10;54241.53;;;-136.87
14666;BMP280;7420;53.574;10.040;2023-06-22T06:09:35;54233.38;;;-136.87
14666;BMP280;7420;53.574;10.040;2023-06-22T06:12:00;54239.50;;;-136.87
14666;BMP280;7420;53.574;10.040;2023-06-22T06:14:28;54243.59;;;-136.87
14666;BMP280;7420;53.574;10.040;2023-06-22T06:16:53;54241.53;;;-136.87
14666;BMP280;7420;53.574;10.040;2023-06-22T06:19:19;54237.44;;;-136.87
14666;BMP280;7420;53.574;10.040;2023-06-22T06:21:44;54241.53;;;-136.87
14666;BMP280;7420;53.574;10.040;2023-06-22T06:24:11;54243.59;;;-136.87
14666;BMP280;7420;53.574;10.040;2023-06-22T06:26:37;54245.63;;;-136.87
14666;BMP280;7420;53.574;10.040;2023-06-22T06:29:02;54241.53;;;-136.87
14666;BMP280;7420;53.574;10.040;2023-06-22T06:31:28;54241.53;;;-136.87
14666;BMP280;7420;53.574;10.040;2023-06-22T06:33:54;54237.44;;;-136.87
14666;BMP280;7420;53.574;10.040;2023-06-22T06:36:20;54245.63;;;-136.87
14666;BMP280;7420;53.574;10.040;2023-06-22T06:38:45;54241.53;;;-136.87
14666;BMP280;7420;53.574;10.040;2023-06-22T06:41:16;54237.44;;;-136.87
14666;BMP280;7420;53.574;10.040;2023-06-22T06:43:41;54243.59;;;-136.87
14666;BMP280;7420;53.574;10.040;2023-06-22T06:46:09;54245.63;;;-136.87
14666;BMP280;7420;53.574;10.040;2023-06-22T06:48:35;54245.63;;;-136.87
14666;BMP280;7420;53.574;10.040;2023-06-22T06:51:00;54243.59;;;-136.87
14666;BMP280;7420;53.574;10.040;2023-06-22T06:53:26;54243.59;;;-136.87
14666;BMP280;7420;53.574;10.040;2023-06-22T06:55:52;54245.63;;;-136.87
14666;BMP280;7420;53.574;10.040;2023-06-22T06:58:17;54241.53;;;-136.87
14666;BMP280;7420;53.574;10.040;2023-06-22T07:00:42;54243.59;;;-136.87
14666;BMP280;7420;53.574;10.040;2023-06-22T07:03:09;54243.59;;;-136.87
14666;BMP280;7420;53.574;10.040;2023-06-22T07:05:34;54241.53;;;-136.87
14666;BMP280;7420;53.574;10.040;2023-06-22T07:08:01;54241.53;;;-136.87
14666;BMP280;7420;53.574;10.040;2023-06-22T07:10:26;54241.53;;;-136.87
14666;BMP280;7420;53.574;10.040;2023-06-22T07:12:52;54241.53;;;-136.87
14666;BMP280;7420;53.574;10.040;2023-06-22T07:15:18;54245.63;;;-136.87
14666;BMP280;7420;53.574;10.040;2023-06-22T07:17:43;54243.59;;;-136.87
14666;BMP280;7420;53.574;10.040;2023-06-22T07:20:09;54243.59;;;-136.87
14666;BMP280;7420;53.574;10.040;2023-06-22T07:22:39;54249.72;;;-136.87
14666;BMP280;7420;53.574;10.040;2023-06-22T07:25:05;54243.59;;;-136.87
14666;BMP280;7420;53.574;10.040;2023-06-22T07:27:38;54237.44;;;-136.87
14666;BMP280;7420;53.574;10.040;2023-06-22T07:30:05;54245.63;;;-136.87
14666;BMP280;7420;53.574;10.040;2023-06-22T07:32:31;54243.59;;;-136.87
14666;BMP280;7420;53.574;10.040;2023-06-22T07:34:56;54239.50;;;-136.87
14666;BMP280;7420;53.574;10.040;2023-06-22T07:37:22;54239.50;;;-136.87
14666;BMP280;7420;53.574;10.040;2023-06-22T07:39:47;54239.50;;;-136.87
14666;BMP280;7420;53.574;10.040;2023-06-22T07:42:13;54233.38;;;-136.87
14666;BMP280;7420;53.574;10.040;2023-06-22T07:44:44;54239.50;;;-136.87
14666;BMP280;7420;53.574;10.040;2023-06-22T07:47:09;54237.44;;;-136.87
14666;BMP280;7420;53.574;10.040;2023-06-22T07:49:34;54241.53;;;-136.87
14666;BMP280;7420;53.574;10.040;2023-06-22T07:52:00;54243.59;;;-136.87
14666;BMP280;7420;53.574;10.040;2023-06-22T07:54:26;54241.53;;;-136.87
14666;BMP280;7420;53.574;10.040;2023-06-22T07:56:51;54235.41;;;-136.87
14666;BMP280;7420;53.574;10.040;2023-06-22T07:59:18;54239.50;;;-136.87
14666;BMP280;7420;53.574;10.040;2023-06-22T08:01:43;54233.38;;;-136.87
14666;BMP280;7420;53.574;10.040;2023-06-22T08:04:09;54239.50;;;-136.87
14666;BMP280;7420;53.574;10.040;2023-06-22T08:06:34;54241.53;;;-136.87
14666;BMP280;7420;53.574;10.040;2023-06-22T08:09:00;54237.44;;;-136.87
14666;BMP280;7420;53.574;10.040;2023-06-22T08:11:25;54233.38;;;-136.87
14666;BMP280;7420;53.574;10.040;2023-06-22T08:13:51;54241.53;;;-136.87
14666;BMP280;7420;53.574;10.040;2023-06-22T08:16:17;54235.41;;;-136.87
14666;BMP280;7420;53.574;10.040;2023-06-22T08:18:43;54233.38;;;-136.87
14666;BMP280;7420;53.574;10.040;2023-06-22T08:21:08;54231.31;;;-136.87
14666;BMP280;7420;53.574;10.040;2023-06-22T08:23:33;54233.38;;;-136.87
14666;BMP280;7420;53.574;10.040;2023-06-22T08:25:59;54233.38;;;-136.87
14666;BMP280;7420;53.574;10.040;2023-06-22T08:28:25;54229.28;;;-136.87
14666;BMP280;7420;53.574;10.040;2023-06-22T08:30:50;54237.44;;;-136.87
14666;BMP280;7420;53.574;10.040;2023-06-22T08:33:16;54229.28;;;-136.87
14666;BMP280;7420;53.574;10.040;2023-06-22T08:35:41;54229.28;;;-136.87
14666;BMP280;7420;53.574;10.040;2023-06-22T08:38:07;54229.28;;;-136.87
14666;BMP280;7420;53.574;10.040;2023-06-22T08:40:32;54229.28;;;-136.87
14666;BMP280;7420;53.574;10.040;2023-06-22T08:42:58;54229.28;;;-136.87
14666;BMP280;7420;53.574;10.040;2023-06-22T08:45:23;54231.31;;;-136.87
14666;BMP280;7420;53.574;10.040;2023-06-22T08:47:49;54229.28;;;-136.87
14666;BMP280;7420;53.574;10.040;2023-06-22T08:50:14;54225.19;;;-136.87
14666;BMP280;7420;53.574;10.040;2023-06-22T08:52:40;54221.13;;;-136.87
14666;BMP280;7420;53.574;10.040;2023-06-22T08:55:09;54223.16;;;-136.87
14666;BMP280;7420;53.574;10.040;2023-06-22T08:57:35;54225.19;;;-136.87
14666;BMP280;7420;53.574;10.040;2023-06-22T09:00:04;54229.28;;;-136.87
14666;BMP280;7420;53.574;10.040;2023-06-22T09:02:30;54221.13;;;-136.87
14666;BMP280;7420;53.574;10.040;2023-06-22T09:04:59;54225.19;;;-136.87
14666;BMP280;7420;53.574;10.040;2023-06-22T09:07:25;54221.13;;;-136.87
14666;BMP280;7420;53.574;10.040;2023-06-22T09:09:51;54223.16;;;-136.87
14666;BMP280;7420;53.574;10.040;2023-06-22T09:12:20;54225.19;;;-136.87
14666;BMP280;7420;53.574;10.040;2023-06-22T09:14:47;54221.13;;;-136.87
14666;BMP280;7420;53.574;10.040;2023-06-22T09:17:13;54225.19;;;-136.87
14666;BMP280;7420;53.574;10.040;2023-06-22T09:19:38;54219.06;;;-136.87
14666;BMP280;7420;53.574;10.040;2023-06-22T09:22:04;54227.25;;;-136.87
14666;BMP280;7420;53.574;10.040;2023-06-22T09:24:31;54217.03;;;-136.87
14666;BMP280;7420;53.574;10.040;2023-06-22T09:26:57;54217.03;;;-136.87
14666;BMP280;7420;53.574;10.040;2023-06-22T09:29:22;54221.13;;;-136.87
14666;BMP280;7420;53.574;10.040;2023-06-22T09:31:48;54217.03;;;-136.87
14666;BMP280;7420;53.574;10.040;2023-06-22T09:34:13;54221.13;;;-136.87
14666;BMP280;7420;53.574;10.040;2023-06-22T09:36:38;54217.03;;;-136.87
14666;BMP280;7420;53.574;10.040;2023-06-22T09:39:06;54221.13;;;-136.87
14666;BMP280;7420;53.574;10.040;2023-06-22T09:41:32;54217.03;;;-136.87
14666;BMP280;7420;53.574;10.040;2023-06-22T09:43:57;54217.03;;;-136.87
14666;BMP280;7420;53.574;10.040;2023-06-22T09:46:23;54219.06;;;-136.87
14666;BMP280;7420;53.574;10.040;2023-06-22T09:48:50;54217.03;;;-136.87
14666;BMP280;7420;53.574;10.040;2023-06-22T09:51:16;54219.06;;;-136.87
14666;BMP280;7420;53.574;10.040;2023-06-22T09:53:41;54225.19;;;-136.87
14666;BMP280;7420;53.574;10.040;2023-06-22T09:56:06;54217.03;;;-136.87
14666;BMP280;7420;53.574;10.040;2023-06-22T09:58:32;54217.03;;;-136.87
14666;BMP280;7420;53.574;10.040;2023-06-22T10:00:57;54219.06;;;-136.87
14666;BMP280;7420;53.574;10.040;2023-06-22T10:03:23;54217.03;;;-136.87
14666;BMP280;7420;53.574;10.040;2023-06-22T10:05:48;54217.03;;;-136.87
14666;BMP280;7420;53.574;10.040;2023-06-22T10:08:13;54212.94;;;-136.87
14666;BMP280;7420;53.574;10.040;2023-06-22T10:10:39;54212.94;;;-136.87
14666;BMP280;7420;53.574;10.040;2023-06-22T10:13:09;54219.06;;;-136.87
14666;BMP280;7420;53.574;10.040;2023-06-22T10:15:37;54214.97;;;-136.87
14666;BMP280;7420;53.574;10.040;2023-06-22T10:18:03;54212.94;;;-136.87
14666;BMP280;7420;53.574;10.040;2023-06-22T10:20:28;54214.97;;;-136.87
14666;BMP280;7420;53.574;10.040;2023-06-22T10:22:54;54217.03;;;-136.87
14666;BMP280;7420;53.574;10.040;2023-06-22T10:25:21;54210.91;;;-136.87
14666;BMP280;7420;53.574;10.040;2023-06-22T10:27:46;54212.94;;;-136.87
14666;BMP280;7420;53.574;10.040;2023-06-22T10:30:12;54217.03;;;-136.87
14666;BMP280;7420;53.574;10.040;2023-06-22T10:32:39;54208.84;;;-136.87
14666;BMP280;7420;53.574;10.040;2023-06-22T10:35:05;54210.91;;;-136.87
14666;BMP280;7420;53.574;10.040;2023-06-22T10:37:30;54212.94;;;-136.87
14666;BMP280;7420;53.574;10.040;2023-06-22T10:39:56;54212.94;;;-136.87
14666;BMP280;7420;53.574;10.040;2023-06-22T10:42:22;54206.81;;;-136.87
14666;BMP280;7420;53.574;10.040;2023-06-22T10:44:47;54212.94;;;-136.87
14666;BMP280;7420;53.574;10.040;2023-06-22T10:47:12;54206.81;;;-136.87
14666;BMP280;7420;53.574;10.040;2023-06-22T10:49:38;54204.78;;;-136.87
14666;BMP280;7420;53.574;10.040;2023-06-22T10:52:05;54210.91;;;-136.87
14666;BMP280;7420;53.574;10.040;2023-06-22T10:54:32;54210.91;;;-136.87
14666;BMP280;7420;53.574;10.040;2023-06-22T10:56:58;54208.84;;;-136.87
14666;BMP280;7420;53.574;10.040;2023-06-22T10:59:24;54212.94;;;-136.87
14666;BMP280;7420;53.574;10.040;2023-06-22T11:01:51;54210.91;;;-136.87
14666;BMP280;7420;53.574;10.040;2023-06-22T11:04:16;54200.69;;;-136.87
14666;BMP280;7420;53.574;10.040;2023-06-22T11:06:43;54204.78;;;-136.87
14666;BMP280;7420;53.574;10.040;2023-06-22T11:09:08;54212.94;;;-136.87
14666;BMP280;7420;53.574;10.040;2023-06-22T11:11:35;54208.84;;;-136.87
14666;BMP280;7420;53.574;10.040;2023-06-22T11:14:00;54208.84;;;-136.87
14666;BMP280;7420;53.574;10.040;2023-06-22T11:16:27;54204.78;;;-136.87
14666;BMP280;7420;53.574;10.040;2023-06-22T11:18:52;54200.69;;;-136.87
14666;BMP280;7420;53.574;10.040;2023-06-22T11:21:17;54196.59;;;-136.87
14666;BMP280;7420;53.574;10.040;2023-06-22T11:23:43;54198.66;;;-136.87
14666;BMP280;7420;53.574;10.040;2023-06-22T11:26:08;54204.78;;;-136.87
14666;BMP280;7420;53.574;10.040;2023-06-22T11:28:33;54196.59;;;-136.87
14666;BMP280;7420;53.574;10.040;2023-06-22T11:30:59;54204.78;;;-136.87
14666;BMP280;7420;53.574;10.040;2023-06-22T11:33:24;54202.72;;;-136.87
14666;BMP280;7420;53.574;10.040;2023-06-22T11:35:50;54202.72;;;-136.87
14666;BMP280;7420;53.574;10.040;2023-06-22T11:38:15;54194.56;;;-136.87
14666;BMP280;7420;53.574;10.040;2023-06-22T11:40:40;54202.72;;;-136.87
14666;BMP280;7420;53.574;10.040;2023-06-22T11:43:06;54200.69;;;-136.87
14666;BMP280;7420;53.574;10.040;2023-06-22T11:45:31;54202.72;;;-136.87
14666;BMP280;7420;53.574;10.040;2023-06-22T11:47:56;54200.69;;;-136.87
14666;BMP280;7420;53.574;10.040;2023-06-22T11:50:22;54200.69;;;-136.87
14666;BMP280;7420;53.574;10.040;2023-06-22T11:52:47;54200.69;;;-136.87
14666;BMP280;7420;53.574;10.040;2023-06-22T11:55:12;54198.66;;;-136.87
14666;BMP280;7420;53.574;10.040;2023-06-22T11:57:38;54200.69;;;-136.87
14666;BMP280;7420;53.574;10.040;2023-06-22T12:00:16;54202.72;;;-136.87
14666;BMP280;7420;53.574;10.040;2023-06-22T12:02:43;54204.78;;;-136.87
14666;BMP280;7420;53.574;10.040;2023-06-22T12:05:10;54202.72;;;-136.87
14666;BMP280;7420;53.574;10.040;2023-06-22T12:07:36;54200.69;;;-136.87
14666;BMP280;7420;53.574;10.040;2023-06-22T12:10:02;54202.72;;;-136.87
14666;BMP280;7420;53.574;10.040;2023-06-22T12:12:27;54202.72;;;-136.87
14666;BMP280;7420;53.574;10.040;2023-06-22T12:14:52;54196.59;;;-136.87
14666;BMP280;7420;53.574;10.040;2023-06-22T12:17:18;54200.69;;;-136.87
14666;BMP280;7420;53.574;10.040;2023-06-22T12:19:43;54198.66;;;-136.87
14666;BMP280;7420;53.574;10.040;2023-06-22T12:22:08;54200.69;;;-136.87
14666;BMP280;7420;53.574;10.040;2023-06-22T12:24:34;54196.59;;;-136.87
14666;BMP280;7420;53.574;10.040;2023-06-22T12:26:59;54196.59;;;-136.87
14666;BMP280;7420;53.574;10.040;2023-06-22T12:29:24;54196.59;;;-136.87
14666;BMP280;7420;53.574;10.040;2023-06-22T12:31:50;54200.69;;;-136.87
14666;BMP280;7420;53.574;10.040;2023-06-22T12:34:15;54200.69;;;-136.87
14666;BMP280;7420;53.574;10.040;2023-06-22T12:36:40;54198.66;;;-136.87
14666;BMP280;7420;53.574;10.040;2023-06-22T12:39:06;54200.69;;;-136.87
14666;BMP280;7420;53.574;10.040;2023-06-22T12:41:31;54196.59;;;-136.87
14666;BMP280;7420;53.574;10.040;2023-06-22T12:43:57;54196.59;;;-136.87
14666;BMP280;7420;53.574;10.040;2023-06-22T12:46:22;54200.69;;;-136.87
14666;BMP280;7420;53.574;10.040;2023-06-22T12:48:47;54202.72;;;-136.87
14666;BMP280;7420;53.574;10.040;2023-06-22T12:51:20;54196.59;;;-136.87
14666;BMP280;7420;53.574;10.040;2023-06-22T12:53:45;54200.69;;;-136.87
14666;BMP280;7420;53.574;10.040;2023-06-22T12:56:11;54196.59;;;-136.87
14666;BMP280;7420;53.574;10.040;2023-06-22T12:58:36;54196.59;;;-136.87
14666;BMP280;7420;53.574;10.040;2023-06-22T13:01:01;54196.59;;;-136.87
14666;BMP280;7420;53.574;10.040;2023-06-22T13:03:26;54194.56;;;-136.87
14666;BMP280;7420;53.574;10.040;2023-06-22T13:05:53;54194.56;;;-136.87
14666;BMP280;7420;53.574;10.040;2023-06-22T13:08:18;54192.53;;;-136.87
14666;BMP280;7420;53.574;10.040;2023-06-22T13:10:44;54196.59;;;-136.87
14666;BMP280;7420;53.574;10.040;2023-06-22T13:15:34;54194.56;;;-136.87
14666;BMP280;7420;53.574;10.040;2023-06-22T13:17:59;54196.59;;;-136.87
14666;BMP280;7420;53.574;10.040;2023-06-22T13:20:25;54196.59;;;-136.87
14666;BMP280;7420;53.574;10.040;2023-06-22T13:25:16;54192.53;;;-136.87
14666;BMP280;7420;53.574;10.040;2023-06-22T13:27:44;54194.56;;;-136.87
14666;BMP280;7420;53.574;10.040;2023-06-22T13:30:10;54192.53;;;-136.87
14666;BMP280;7420;53.574;10.040;2023-06-22T13:32:35;54194.56;;;-136.87
14666;BMP280;7420;53.574;10.040;2023-06-22T13:35:01;54194.56;;;-136.87
14666;BMP280;7420;53.574;10.040;2023-06-22T13:37:26;54196.59;;;-136.87
14666;BMP280;7420;53.574;10.040;2023-06-22T13:39:52;54200.69;;;-136.87
14666;BMP280;7420;53.574;10.040;2023-06-22T13:42:18;54200.69;;;-136.87
14666;BMP280;7420;53.574;10.040;2023-06-22T13:44:43;54196.59;;;-136.87
14666;BMP280;7420;53.574;10.040;2023-06-22T13:47:09;54200.69;;;-136.87
14666;BMP280;7420;53.574;10.040;2023-06-22T13:49:34;54194.56;;;-136.87
14666;BMP280;7420;53.574;10.040;2023-06-22T13:52:00;54200.69;;;-136.87
14666;BMP280;7420;53.574;10.040;2023-06-22T13:54:25;54196.59;;;-136.87
14666;BMP280;7420;53.574;10.040;2023-06-22T13:56:50;54198.66;;;-136.87
14666;BMP280;7420;53.574;10.040;2023-06-22T13:59:16;54194.56;;;-136.87
14666;BMP280;7420;53.574;10.040;2023-06-22T14:01:41;54192.53;;;-136.87
14666;BMP280;7420;53.574;10.040;2023-06-22T14:04:08;54194.56;;;-136.87
14666;BMP280;7420;53.574;10.040;2023-06-22T14:06:33;54196.59;;;-136.87
14666;BMP280;7420;53.574;10.040;2023-06-22T14:08:59;54198.66;;;-136.87
14666;BMP280;7420;53.574;10.040;2023-06-22T14:11:24;54200.69;;;-136.87
14666;BMP280;7420;53.574;10.040;2023-06-22T14:13:50;54196.59;;;-136.87
14666;BMP280;7420;53.574;10.040;2023-06-22T14:16:15;54196.59;;;-136.87
14666;BMP280;7420;53.574;10.040;2023-06-22T14:18:41;54204.78;;;-136.87
14666;BMP280;7420;53.574;10.040;2023-06-22T14:21:07;54200.69;;;-136.87
14666;BMP280;7420;53.574;10.040;2023-06-22T14:23:32;54200.69;;;-136.87
14666;BMP280;7420;53.574;10.040;2023-06-22T14:25:57;54204.78;;;-136.87